< < Back
Terminal Aerodrome Forecast


Current Version              Previous Versions:   1  2  3  4  5  6  7  8  9  

Terminal Aerodrome Forecast

641
FTUS42 KMLB 260900 AAA
TAFDAB
TAF AMD
KDAB 260951Z 2610/2706 22009KT P6SM VCSH FEW025 SCT035 BKN045
      TEMPO 2610/2612 4SM SHRA SCT015 BKN035 BKN040
     FM261400 25015G22KT P6SM SCT030 SCT050
     FM261600 28019G28KT P6SM FEW030 SCT120
     FM270000 27012G19KT P6SM SKC=

Latest METAR

569
SAUS80 KWBC 262000
MTRDAB
METAR KDAB 261953Z 26018G27KT 10SM FEW050 18/03 A2979 RMK AO2 PK WND
24031/1856 SLP088 T01780033


USA.gov is the U.S. government's official web portal to all federal, state and local government web resources and services.